Terminal Aerodrome Forecast
Issued by NWS

Home | Current Version | Previous Version | Text Only | Print | Product List | Glossary On
Versions: 1 2 3 4 5 6 7 8 9 10 11 12 13 14 15 16 17 18 19 20 21 22 23 24 25 26 27 28 29 30
401
FTUS42 KKEY 090357 AAB
TAFMTH
TAF AMD
KMTH 090357Z 0904/0924 02006KT P6SM SCT012 BKN035
      TEMPO 0904/0908 OVC010
     FM090800 02012KT P6SM BKN015
     FM091800 04017G23KT P6SM OVC050=

USA.gov is the U.S. government's official web portal to all federal, state and local government web resources and services.